sensor_id;sensor_type;location;lat;lon;timestamp;P1;durP1;ratioP1;P2;durP2;ratioP2
17604;SDS011;8921;50.964;6.800;2023-06-14T00:02:19;10.10;;;7.27;;
17604;SDS011;8921;50.964;6.800;2023-06-14T00:04:47;11.90;;;6.20;;
17604;SDS011;8921;50.964;6.800;2023-06-14T00:07:15;11.63;;;7.40;;
17604;SDS011;8921;50.964;6.800;2023-06-14T00:09:43;11.30;;;7.63;;
17604;SDS011;8921;50.964;6.800;2023-06-14T00:12:12;9.80;;;7.53;;
17604;SDS011;8921;50.964;6.800;2023-06-14T00:14:40;11.27;;;7.20;;
17604;SDS011;8921;50.964;6.800;2023-06-14T00:17:08;11.50;;;8.20;;
17604;SDS011;8921;50.964;6.800;2023-06-14T00:19:37;12.27;;;7.70;;
17604;SDS011;8921;50.964;6.800;2023-06-14T00:22:05;13.63;;;9.30;;
17604;SDS011;8921;50.964;6.800;2023-06-14T00:24:33;11.37;;;8.50;;
17604;SDS011;8921;50.964;6.800;2023-06-14T00:27:01;14.20;;;8.63;;
17604;SDS011;8921;50.964;6.800;2023-06-14T00:29:30;12.33;;;8.13;;
17604;SDS011;8921;50.964;6.800;2023-06-14T00:31:58;12.10;;;7.77;;
17604;SDS011;8921;50.964;6.800;2023-06-14T00:34:26;12.63;;;7.43;;
17604;SDS011;8921;50.964;6.800;2023-06-14T00:36:54;10.67;;;6.73;;
17604;SDS011;8921;50.964;6.800;2023-06-14T00:39:23;13.23;;;6.70;;
17604;SDS011;8921;50.964;6.800;2023-06-14T00:41:51;10.23;;;7.10;;
17604;SDS011;8921;50.964;6.800;2023-06-14T00:44:19;11.10;;;7.77;;
17604;SDS011;8921;50.964;6.800;2023-06-14T00:46:48;12.23;;;6.80;;
17604;SDS011;8921;50.964;6.800;2023-06-14T00:49:16;10.40;;;6.97;;
17604;SDS011;8921;50.964;6.800;2023-06-14T00:51:44;10.10;;;7.50;;
17604;SDS011;8921;50.964;6.800;2023-06-14T00:54:12;11.43;;;7.60;;
17604;SDS011;8921;50.964;6.800;2023-06-14T00:56:41;10.53;;;8.17;;
17604;SDS011;8921;50.964;6.800;2023-06-14T00:59:09;11.70;;;7.90;;
17604;SDS011;8921;50.964;6.800;2023-06-14T01:01:37;10.10;;;7.67;;
17604;SDS011;8921;50.964;6.800;2023-06-14T01:04:06;13.67;;;8.23;;
17604;SDS011;8921;50.964;6.800;2023-06-14T01:12:08;11.63;;;7.83;;
17604;SDS011;8921;50.964;6.800;2023-06-14T01:14:35;11.77;;;7.23;;
17604;SDS011;8921;50.964;6.800;2023-06-14T01:17:03;10.80;;;7.80;;
17604;SDS011;8921;50.964;6.800;2023-06-14T01:19:32;11.23;;;8.77;;
17604;SDS011;8921;50.964;6.800;2023-06-14T01:22:00;9.27;;;7.00;;
17604;SDS011;8921;50.964;6.800;2023-06-14T01:24:28;10.90;;;7.50;;
17604;SDS011;8921;50.964;6.800;2023-06-14T01:26:57;11.97;;;8.07;;
17604;SDS011;8921;50.964;6.800;2023-06-14T01:29:25;9.73;;;7.80;;
17604;SDS011;8921;50.964;6.800;2023-06-14T01:31:53;11.60;;;8.07;;
17604;SDS011;8921;50.964;6.800;2023-06-14T01:34:21;17.53;;;8.07;;
17604;SDS011;8921;50.964;6.800;2023-06-14T01:36:49;11.83;;;7.30;;
17604;SDS011;8921;50.964;6.800;2023-06-14T01:39:18;11.27;;;8.10;;
17604;SDS011;8921;50.964;6.800;2023-06-14T01:41:46;13.83;;;7.77;;
17604;SDS011;8921;50.964;6.800;2023-06-14T01:44:14;10.33;;;7.90;;
17604;SDS011;8921;50.964;6.800;2023-06-14T01:46:43;12.73;;;8.57;;
17604;SDS011;8921;50.964;6.800;2023-06-14T01:49:11;19.20;;;7.57;;
17604;SDS011;8921;50.964;6.800;2023-06-14T01:51:39;11.53;;;7.90;;
17604;SDS011;8921;50.964;6.800;2023-06-14T01:54:07;12.40;;;7.93;;
17604;SDS011;8921;50.964;6.800;2023-06-14T01:56:36;14.30;;;8.43;;
17604;SDS011;8921;50.964;6.800;2023-06-14T01:59:04;12.27;;;8.17;;
17604;SDS011;8921;50.964;6.800;2023-06-14T02:01:32;12.63;;;8.10;;
17604;SDS011;8921;50.964;6.800;2023-06-14T02:04:00;12.20;;;8.30;;
17604;SDS011;8921;50.964;6.800;2023-06-14T02:06:29;11.80;;;8.20;;
17604;SDS011;8921;50.964;6.800;2023-06-14T02:08:57;15.53;;;7.97;;
17604;SDS011;8921;50.964;6.800;2023-06-14T02:11:25;12.60;;;8.00;;
17604;SDS011;8921;50.964;6.800;2023-06-14T02:13:54;11.03;;;8.20;;
17604;SDS011;8921;50.964;6.800;2023-06-14T02:16:22;12.60;;;8.27;;
17604;SDS011;8921;50.964;6.800;2023-06-14T02:18:50;9.93;;;7.47;;
17604;SDS011;8921;50.964;6.800;2023-06-14T02:21:18;14.07;;;8.33;;
17604;SDS011;8921;50.964;6.800;2023-06-14T02:23:47;12.60;;;8.67;;
17604;SDS011;8921;50.964;6.800;2023-06-14T02:26:15;10.23;;;7.60;;
17604;SDS011;8921;50.964;6.800;2023-06-14T02:28:43;10.97;;;8.37;;
17604;SDS011;8921;50.964;6.800;2023-06-14T02:31:11;10.20;;;7.60;;
17604;SDS011;8921;50.964;6.800;2023-06-14T02:33:40;12.00;;;7.57;;
17604;SDS011;8921;50.964;6.800;2023-06-14T02:36:08;11.33;;;8.10;;
17604;SDS011;8921;50.964;6.800;2023-06-14T02:38:36;13.83;;;8.87;;
17604;SDS011;8921;50.964;6.800;2023-06-14T02:41:05;11.20;;;8.40;;
17604;SDS011;8921;50.964;6.800;2023-06-14T02:43:33;11.00;;;7.67;;
17604;SDS011;8921;50.964;6.800;2023-06-14T02:46:01;19.07;;;8.63;;
17604;SDS011;8921;50.964;6.800;2023-06-14T02:48:29;13.53;;;9.00;;
17604;SDS011;8921;50.964;6.800;2023-06-14T02:50:58;12.63;;;9.70;;
17604;SDS011;8921;50.964;6.800;2023-06-14T02:53:26;10.50;;;7.77;;
17604;SDS011;8921;50.964;6.800;2023-06-14T02:55:54;11.63;;;8.10;;
17604;SDS011;8921;50.964;6.800;2023-06-14T02:58:23;12.73;;;9.30;;
17604;SDS011;8921;50.964;6.800;2023-06-14T03:00:51;13.47;;;9.00;;
17604;SDS011;8921;50.964;6.800;2023-06-14T03:03:19;13.00;;;8.47;;
17604;SDS011;8921;50.964;6.800;2023-06-14T03:05:48;11.47;;;8.60;;
17604;SDS011;8921;50.964;6.800;2023-06-14T03:08:16;13.60;;;8.83;;
17604;SDS011;8921;50.964;6.800;2023-06-14T03:10:45;11.30;;;8.60;;
17604;SDS011;8921;50.964;6.800;2023-06-14T03:13:13;13.47;;;8.77;;
17604;SDS011;8921;50.964;6.800;2023-06-14T03:15:43;12.83;;;8.17;;
17604;SDS011;8921;50.964;6.800;2023-06-14T03:18:11;12.53;;;8.20;;
17604;SDS011;8921;50.964;6.800;2023-06-14T03:20:40;14.83;;;8.90;;
17604;SDS011;8921;50.964;6.800;2023-06-14T03:23:08;12.20;;;8.17;;
17604;SDS011;8921;50.964;6.800;2023-06-14T03:25:36;12.33;;;7.93;;
17604;SDS011;8921;50.964;6.800;2023-06-14T03:28:05;13.33;;;8.10;;
17604;SDS011;8921;50.964;6.800;2023-06-14T03:30:33;12.70;;;8.10;;
17604;SDS011;8921;50.964;6.800;2023-06-14T03:33:01;9.67;;;7.80;;
17604;SDS011;8921;50.964;6.800;2023-06-14T03:35:29;11.20;;;8.27;;
17604;SDS011;8921;50.964;6.800;2023-06-14T03:37:58;10.20;;;8.00;;
17604;SDS011;8921;50.964;6.800;2023-06-14T03:40:26;12.27;;;9.40;;
17604;SDS011;8921;50.964;6.800;2023-06-14T03:42:54;12.73;;;8.70;;
17604;SDS011;8921;50.964;6.800;2023-06-14T03:45:23;10.67;;;8.37;;
17604;SDS011;8921;50.964;6.800;2023-06-14T03:47:51;11.37;;;8.20;;
17604;SDS011;8921;50.964;6.800;2023-06-14T03:50:19;13.70;;;8.93;;
17604;SDS011;8921;50.964;6.800;2023-06-14T03:52:48;12.80;;;9.03;;
17604;SDS011;8921;50.964;6.800;2023-06-14T03:55:16;15.27;;;9.13;;
17604;SDS011;8921;50.964;6.800;2023-06-14T03:57:44;13.60;;;8.70;;
17604;SDS011;8921;50.964;6.800;2023-06-14T04:00:12;11.90;;;8.67;;
17604;SDS011;8921;50.964;6.800;2023-06-14T04:02:41;35.37;;;9.63;;
17604;SDS011;8921;50.964;6.800;2023-06-14T04:05:09;23.50;;;9.70;;
17604;SDS011;8921;50.964;6.800;2023-06-14T04:07:37;13.60;;;8.70;;
17604;SDS011;8921;50.964;6.800;2023-06-14T04:10:08;14.97;;;8.93;;
17604;SDS011;8921;50.964;6.800;2023-06-14T04:12:37;12.10;;;8.77;;
17604;SDS011;8921;50.964;6.800;2023-06-14T04:15:05;10.87;;;8.27;;
17604;SDS011;8921;50.964;6.800;2023-06-14T04:17:34;21.33;;;14.07;;
17604;SDS011;8921;50.964;6.800;2023-06-14T04:20:02;17.63;;;10.50;;
17604;SDS011;8921;50.964;6.800;2023-06-14T04:22:30;14.57;;;8.97;;
17604;SDS011;8921;50.964;6.800;2023-06-14T04:24:58;14.93;;;9.07;;
17604;SDS011;8921;50.964;6.800;2023-06-14T04:27:27;13.90;;;8.60;;
17604;SDS011;8921;50.964;6.800;2023-06-14T04:29:55;13.80;;;8.87;;
17604;SDS011;8921;50.964;6.800;2023-06-14T04:32:24;15.33;;;8.47;;
17604;SDS011;8921;50.964;6.800;2023-06-14T04:34:57;12.63;;;8.77;;
17604;SDS011;8921;50.964;6.800;2023-06-14T04:37:25;14.37;;;9.47;;
17604;SDS011;8921;50.964;6.800;2023-06-14T04:39:54;14.33;;;8.10;;
17604;SDS011;8921;50.964;6.800;2023-06-14T04:42:22;17.07;;;8.67;;
17604;SDS011;8921;50.964;6.800;2023-06-14T04:44:51;22.90;;;10.10;;
17604;SDS011;8921;50.964;6.800;2023-06-14T04:47:22;12.27;;;8.23;;
17604;SDS011;8921;50.964;6.800;2023-06-14T04:49:53;16.90;;;9.17;;
17604;SDS011;8921;50.964;6.800;2023-06-14T04:52:21;20.40;;;7.63;;
17604;SDS011;8921;50.964;6.800;2023-06-14T04:54:49;19.80;;;10.27;;
17604;SDS011;8921;50.964;6.800;2023-06-14T04:57:18;19.93;;;11.03;;
17604;SDS011;8921;50.964;6.800;2023-06-14T04:59:46;21.70;;;10.60;;
17604;SDS011;8921;50.964;6.800;2023-06-14T05:02:14;16.10;;;10.53;;
17604;SDS011;8921;50.964;6.800;2023-06-14T05:04:42;17.93;;;10.37;;
17604;SDS011;8921;50.964;6.800;2023-06-14T05:07:11;18.50;;;11.00;;
17604;SDS011;8921;50.964;6.800;2023-06-14T05:09:39;23.20;;;13.47;;
17604;SDS011;8921;50.964;6.800;2023-06-14T05:12:07;18.57;;;10.10;;
17604;SDS011;8921;50.964;6.800;2023-06-14T05:14:36;20.87;;;10.47;;
17604;SDS011;8921;50.964;6.800;2023-06-14T05:17:04;22.10;;;10.90;;
17604;SDS011;8921;50.964;6.800;2023-06-14T05:19:32;17.77;;;9.60;;
17604;SDS011;8921;50.964;6.800;2023-06-14T05:22:00;23.03;;;9.73;;
17604;SDS011;8921;50.964;6.800;2023-06-14T05:24:29;23.67;;;10.53;;
17604;SDS011;8921;50.964;6.800;2023-06-14T05:26:57;25.97;;;9.70;;
17604;SDS011;8921;50.964;6.800;2023-06-14T05:29:25;26.63;;;10.67;;
17604;SDS011;8921;50.964;6.800;2023-06-14T05:31:54;27.40;;;8.37;;
17604;SDS011;8921;50.964;6.800;2023-06-14T05:34:22;16.63;;;8.97;;
17604;SDS011;8921;50.964;6.800;2023-06-14T05:36:50;17.33;;;7.97;;
17604;SDS011;8921;50.964;6.800;2023-06-14T05:39:18;13.67;;;7.53;;
17604;SDS011;8921;50.964;6.800;2023-06-14T05:41:47;11.50;;;6.93;;
17604;SDS011;8921;50.964;6.800;2023-06-14T05:44:15;12.90;;;6.40;;
17604;SDS011;8921;50.964;6.800;2023-06-14T05:46:43;10.03;;;6.20;;
17604;SDS011;8921;50.964;6.800;2023-06-14T05:49:12;9.53;;;5.83;;
17604;SDS011;8921;50.964;6.800;2023-06-14T05:51:40;22.03;;;7.33;;
17604;SDS011;8921;50.964;6.800;2023-06-14T05:54:08;10.77;;;5.40;;
17604;SDS011;8921;50.964;6.800;2023-06-14T05:56:36;8.53;;;5.37;;
17604;SDS011;8921;50.964;6.800;2023-06-14T05:59:05;12.90;;;5.63;;
17604;SDS011;8921;50.964;6.800;2023-06-14T06:01:33;8.70;;;4.80;;
17604;SDS011;8921;50.964;6.800;2023-06-14T06:04:02;8.37;;;4.23;;
17604;SDS011;8921;50.964;6.800;2023-06-14T06:06:30;10.00;;;5.40;;
17604;SDS011;8921;50.964;6.800;2023-06-14T06:08:58;13.93;;;4.47;;
17604;SDS011;8921;50.964;6.800;2023-06-14T06:11:26;11.97;;;6.80;;
17604;SDS011;8921;50.964;6.800;2023-06-14T06:13:54;18.37;;;7.70;;
17604;SDS011;8921;50.964;6.800;2023-06-14T06:16:23;8.20;;;4.10;;
17604;SDS011;8921;50.964;6.800;2023-06-14T06:18:51;6.60;;;4.27;;
17604;SDS011;8921;50.964;6.800;2023-06-14T06:21:19;8.03;;;4.43;;
17604;SDS011;8921;50.964;6.800;2023-06-14T06:23:47;8.90;;;4.13;;
17604;SDS011;8921;50.964;6.800;2023-06-14T06:26:16;10.70;;;4.60;;
17604;SDS011;8921;50.964;6.800;2023-06-14T06:28:44;8.13;;;4.20;;
17604;SDS011;8921;50.964;6.800;2023-06-14T06:31:12;12.10;;;4.80;;
17604;SDS011;8921;50.964;6.800;2023-06-14T06:33:41;6.77;;;4.67;;
17604;SDS011;8921;50.964;6.800;2023-06-14T06:36:09;12.03;;;4.50;;
17604;SDS011;8921;50.964;6.800;2023-06-14T06:38:37;7.60;;;4.07;;
17604;SDS011;8921;50.964;6.800;2023-06-14T06:41:05;8.77;;;3.70;;
17604;SDS011;8921;50.964;6.800;2023-06-14T06:43:34;7.37;;;4.00;;
17604;SDS011;8921;50.964;6.800;2023-06-14T06:46:02;7.90;;;3.70;;
17604;SDS011;8921;50.964;6.800;2023-06-14T06:48:30;9.80;;;4.80;;
17604;SDS011;8921;50.964;6.800;2023-06-14T06:50:59;11.37;;;4.40;;
17604;SDS011;8921;50.964;6.800;2023-06-14T06:53:27;7.90;;;4.20;;
17604;SDS011;8921;50.964;6.800;2023-06-14T06:55:55;10.50;;;4.10;;
17604;SDS011;8921;50.964;6.800;2023-06-14T06:58:23;12.00;;;4.23;;
17604;SDS011;8921;50.964;6.800;2023-06-14T07:00:52;11.60;;;4.77;;
17604;SDS011;8921;50.964;6.800;2023-06-14T07:03:20;8.80;;;4.13;;
17604;SDS011;8921;50.964;6.800;2023-06-14T07:05:48;10.10;;;3.87;;
17604;SDS011;8921;50.964;6.800;2023-06-14T07:08:17;6.10;;;4.50;;
17604;SDS011;8921;50.964;6.800;2023-06-14T07:10:45;6.10;;;3.40;;
17604;SDS011;8921;50.964;6.800;2023-06-14T07:13:13;6.00;;;3.57;;
17604;SDS011;8921;50.964;6.800;2023-06-14T07:15:41;8.57;;;3.83;;
17604;SDS011;8921;50.964;6.800;2023-06-14T07:18:10;8.17;;;3.83;;
17604;SDS011;8921;50.964;6.800;2023-06-14T07:20:38;7.40;;;3.57;;
17604;SDS011;8921;50.964;6.800;2023-06-14T07:23:06;7.80;;;3.80;;
17604;SDS011;8921;50.964;6.800;2023-06-14T07:25:35;15.70;;;5.30;;
17604;SDS011;8921;50.964;6.800;2023-06-14T07:28:03;5.27;;;3.47;;
17604;SDS011;8921;50.964;6.800;2023-06-14T07:30:31;9.80;;;3.33;;
17604;SDS011;8921;50.964;6.800;2023-06-14T07:32:59;11.33;;;3.63;;
17604;SDS011;8921;50.964;6.800;2023-06-14T07:35:28;11.60;;;4.00;;
17604;SDS011;8921;50.964;6.800;2023-06-14T07:37:56;12.53;;;3.47;;
17604;SDS011;8921;50.964;6.800;2023-06-14T07:40:24;7.17;;;3.57;;
17604;SDS011;8921;50.964;6.800;2023-06-14T07:42:53;7.50;;;3.83;;
17604;SDS011;8921;50.964;6.800;2023-06-14T07:45:21;7.40;;;4.10;;
17604;SDS011;8921;50.964;6.800;2023-06-14T07:47:49;8.50;;;3.70;;
17604;SDS011;8921;50.964;6.800;2023-06-14T07:50:17;8.07;;;4.30;;
17604;SDS011;8921;50.964;6.800;2023-06-14T07:52:46;19.03;;;4.50;;
17604;SDS011;8921;50.964;6.800;2023-06-14T07:55:14;5.37;;;3.20;;
17604;SDS011;8921;50.964;6.800;2023-06-14T07:57:42;7.73;;;3.73;;
17604;SDS011;8921;50.964;6.800;2023-06-14T08:00:11;9.93;;;3.40;;
17604;SDS011;8921;50.964;6.800;2023-06-14T08:02:39;7.80;;;3.40;;
17604;SDS011;8921;50.964;6.800;2023-06-14T08:05:09;6.23;;;3.40;;
17604;SDS011;8921;50.964;6.800;2023-06-14T08:07:36;6.67;;;3.30;;
17604;SDS011;8921;50.964;6.800;2023-06-14T08:10:05;9.83;;;3.70;;
17604;SDS011;8921;50.964;6.800;2023-06-14T08:12:33;14.60;;;3.90;;
17604;SDS011;8921;50.964;6.800;2023-06-14T08:15:01;14.23;;;3.43;;
17604;SDS011;8921;50.964;6.800;2023-06-14T08:17:29;5.83;;;2.90;;
17604;SDS011;8921;50.964;6.800;2023-06-14T08:19:57;8.80;;;3.10;;
17604;SDS011;8921;50.964;6.800;2023-06-14T08:22:26;8.00;;;3.17;;
17604;SDS011;8921;50.964;6.800;2023-06-14T08:24:54;6.10;;;2.50;;
17604;SDS011;8921;50.964;6.800;2023-06-14T08:27:22;5.80;;;2.37;;
17604;SDS011;8921;50.964;6.800;2023-06-14T08:29:50;5.70;;;2.87;;
17604;SDS011;8921;50.964;6.800;2023-06-14T08:32:19;6.80;;;2.30;;
17604;SDS011;8921;50.964;6.800;2023-06-14T08:34:47;6.10;;;2.20;;
17604;SDS011;8921;50.964;6.800;2023-06-14T08:37:15;8.53;;;2.37;;
17604;SDS011;8921;50.964;6.800;2023-06-14T08:39:43;12.23;;;2.37;;
17604;SDS011;8921;50.964;6.800;2023-06-14T08:42:12;7.10;;;2.40;;
17604;SDS011;8921;50.964;6.800;2023-06-14T08:44:40;4.93;;;2.10;;
17604;SDS011;8921;50.964;6.800;2023-06-14T08:47:08;5.00;;;2.13;;
17604;SDS011;8921;50.964;6.800;2023-06-14T08:49:37;8.60;;;2.27;;
17604;SDS011;8921;50.964;6.800;2023-06-14T08:52:05;7.00;;;2.27;;
17604;SDS011;8921;50.964;6.800;2023-06-14T08:54:33;9.70;;;2.77;;
17604;SDS011;8921;50.964;6.800;2023-06-14T08:57:04;15.83;;;2.13;;
17604;SDS011;8921;50.964;6.800;2023-06-14T08:59:33;5.60;;;2.10;;
17604;SDS011;8921;50.964;6.800;2023-06-14T09:02:01;7.20;;;3.10;;
17604;SDS011;8921;50.964;6.800;2023-06-14T09:04:29;8.73;;;2.80;;
17604;SDS011;8921;50.964;6.800;2023-06-14T09:06:58;5.90;;;3.00;;
17604;SDS011;8921;50.964;6.800;2023-06-14T09:09:26;5.23;;;2.47;;
17604;SDS011;8921;50.964;6.800;2023-06-14T09:11:54;6.93;;;2.70;;
17604;SDS011;8921;50.964;6.800;2023-06-14T09:14:23;8.87;;;2.97;;
17604;SDS011;8921;50.964;6.800;2023-06-14T09:16:54;9.87;;;2.80;;
17604;SDS011;8921;50.964;6.800;2023-06-14T09:19:25;8.07;;;2.53;;
17604;SDS011;8921;50.964;6.800;2023-06-14T09:21:53;5.13;;;2.30;;
17604;SDS011;8921;50.964;6.800;2023-06-14T09:24:23;5.60;;;2.80;;
17604;SDS011;8921;50.964;6.800;2023-06-14T09:26:53;5.63;;;2.20;;
17604;SDS011;8921;50.964;6.800;2023-06-14T09:29:21;4.97;;;2.03;;
17604;SDS011;8921;50.964;6.800;2023-06-14T09:31:49;6.20;;;2.97;;
17604;SDS011;8921;50.964;6.800;2023-06-14T09:34:17;8.30;;;2.60;;
17604;SDS011;8921;50.964;6.800;2023-06-14T09:36:46;6.20;;;2.60;;
17604;SDS011;8921;50.964;6.800;2023-06-14T09:39:16;6.73;;;2.50;;
17604;SDS011;8921;50.964;6.800;2023-06-14T09:41:42;8.20;;;2.27;;
17604;SDS011;8921;50.964;6.800;2023-06-14T09:44:11;7.07;;;3.43;;
17604;SDS011;8921;50.964;6.800;2023-06-14T09:46:39;8.30;;;2.77;;
17604;SDS011;8921;50.964;6.800;2023-06-14T09:49:08;4.63;;;2.30;;
17604;SDS011;8921;50.964;6.800;2023-06-14T09:51:36;5.93;;;2.33;;
17604;SDS011;8921;50.964;6.800;2023-06-14T09:54:04;6.80;;;2.47;;
17604;SDS011;8921;50.964;6.800;2023-06-14T09:56:36;5.00;;;2.20;;
17604;SDS011;8921;50.964;6.800;2023-06-14T09:59:04;11.40;;;2.90;;
17604;SDS011;8921;50.964;6.800;2023-06-14T10:01:35;6.00;;;2.17;;
17604;SDS011;8921;50.964;6.800;2023-06-14T10:04:03;7.40;;;2.60;;
17604;SDS011;8921;50.964;6.800;2023-06-14T10:06:31;5.60;;;2.30;;
17604;SDS011;8921;50.964;6.800;2023-06-14T10:08:59;4.43;;;2.13;;
17604;SDS011;8921;50.964;6.800;2023-06-14T10:11:27;6.50;;;2.50;;
17604;SDS011;8921;50.964;6.800;2023-06-14T10:13:56;5.30;;;2.30;;
17604;SDS011;8921;50.964;6.800;2023-06-14T10:19:16;6.47;;;2.40;;
17604;SDS011;8921;50.964;6.800;2023-06-14T10:21:55;6.60;;;3.10;;
17604;SDS011;8921;50.964;6.800;2023-06-14T10:24:30;10.30;;;2.50;;
17604;SDS011;8921;50.964;6.800;2023-06-14T10:26:59;14.83;;;2.93;;
17604;SDS011;8921;50.964;6.800;2023-06-14T10:29:29;8.80;;;2.83;;
17604;SDS011;8921;50.964;6.800;2023-06-14T10:31:59;13.63;;;3.30;;
17604;SDS011;8921;50.964;6.800;2023-06-14T10:34:28;5.47;;;2.40;;
17604;SDS011;8921;50.964;6.800;2023-06-14T10:37:02;8.00;;;2.80;;
17604;SDS011;8921;50.964;6.800;2023-06-14T10:39:30;7.30;;;2.50;;
17604;SDS011;8921;50.964;6.800;2023-06-14T10:41:58;7.50;;;2.30;;
17604;SDS011;8921;50.964;6.800;2023-06-14T10:47:00;6.17;;;3.07;;
17604;SDS011;8921;50.964;6.800;2023-06-14T10:49:38;5.47;;;2.30;;
17604;SDS011;8921;50.964;6.800;2023-06-14T10:52:07;5.20;;;2.33;;
17604;SDS011;8921;50.964;6.800;2023-06-14T10:54:34;9.57;;;3.40;;
17604;SDS011;8921;50.964;6.800;2023-06-14T10:57:02;7.50;;;2.10;;
17604;SDS011;8921;50.964;6.800;2023-06-14T10:59:30;6.17;;;3.03;;
17604;SDS011;8921;50.964;6.800;2023-06-14T11:04:55;13.30;;;3.33;;
17604;SDS011;8921;50.964;6.800;2023-06-14T11:07:41;6.40;;;2.73;;
17604;SDS011;8921;50.964;6.800;2023-06-14T11:10:26;5.60;;;2.40;;
17604;SDS011;8921;50.964;6.800;2023-06-14T11:12:59;6.20;;;2.70;;
17604;SDS011;8921;50.964;6.800;2023-06-14T11:15:31;9.20;;;2.63;;
17604;SDS011;8921;50.964;6.800;2023-06-14T11:18:07;6.17;;;3.13;;
17604;SDS011;8921;50.964;6.800;2023-06-14T11:20:30;5.40;;;2.77;;
17604;SDS011;8921;50.964;6.800;2023-06-14T11:22:58;13.93;;;3.27;;
17604;SDS011;8921;50.964;6.800;2023-06-14T11:25:27;7.80;;;2.87;;
17604;SDS011;8921;50.964;6.800;2023-06-14T11:27:56;5.10;;;2.40;;
17604;SDS011;8921;50.964;6.800;2023-06-14T11:30:24;6.40;;;2.60;;
17604;SDS011;8921;50.964;6.800;2023-06-14T11:32:52;6.50;;;3.20;;
17604;SDS011;8921;50.964;6.800;2023-06-14T11:35:23;9.30;;;3.00;;
17604;SDS011;8921;50.964;6.800;2023-06-14T11:37:54;6.93;;;3.27;;
17604;SDS011;8921;50.964;6.800;2023-06-14T11:40:26;5.87;;;2.70;;
17604;SDS011;8921;50.964;6.800;2023-06-14T11:42:59;5.63;;;2.40;;
17604;SDS011;8921;50.964;6.800;2023-06-14T11:45:29;7.10;;;2.93;;
17604;SDS011;8921;50.964;6.800;2023-06-14T11:47:56;8.30;;;3.10;;
17604;SDS011;8921;50.964;6.800;2023-06-14T11:50:24;9.23;;;2.87;;
17604;SDS011;8921;50.964;6.800;2023-06-14T11:52:55;4.60;;;1.93;;
17604;SDS011;8921;50.964;6.800;2023-06-14T11:55:23;5.70;;;2.87;;
17604;SDS011;8921;50.964;6.800;2023-06-14T11:57:53;7.60;;;2.53;;
17604;SDS011;8921;50.964;6.800;2023-06-14T12:00:19;11.07;;;2.87;;
17604;SDS011;8921;50.964;6.800;2023-06-14T12:02:54;5.27;;;2.40;;
17604;SDS011;8921;50.964;6.800;2023-06-14T12:05:22;6.30;;;2.50;;
17604;SDS011;8921;50.964;6.800;2023-06-14T12:07:50;5.73;;;3.23;;
17604;SDS011;8921;50.964;6.800;2023-06-14T12:10:18;6.90;;;2.77;;
17604;SDS011;8921;50.964;6.800;2023-06-14T12:12:47;5.93;;;2.40;;
17604;SDS011;8921;50.964;6.800;2023-06-14T12:15:15;5.67;;;2.53;;
17604;SDS011;8921;50.964;6.800;2023-06-14T12:17:43;10.03;;;3.50;;
17604;SDS011;8921;50.964;6.800;2023-06-14T12:20:12;6.27;;;2.60;;
17604;SDS011;8921;50.964;6.800;2023-06-14T12:25:23;6.50;;;2.83;;
17604;SDS011;8921;50.964;6.800;2023-06-14T12:27:58;13.97;;;3.20;;
17604;SDS011;8921;50.964;6.800;2023-06-14T12:30:35;5.07;;;2.10;;
17604;SDS011;8921;50.964;6.800;2023-06-14T12:33:02;5.70;;;2.13;;
17604;SDS011;8921;50.964;6.800;2023-06-14T12:35:30;7.10;;;2.83;;
17604;SDS011;8921;50.964;6.800;2023-06-14T12:37:59;8.20;;;2.80;;
17604;SDS011;8921;50.964;6.800;2023-06-14T12:40:27;4.40;;;2.20;;
17604;SDS011;8921;50.964;6.800;2023-06-14T12:42:55;5.70;;;2.10;;
17604;SDS011;8921;50.964;6.800;2023-06-14T12:45:24;6.20;;;2.50;;
17604;SDS011;8921;50.964;6.800;2023-06-14T12:47:52;6.40;;;2.60;;
17604;SDS011;8921;50.964;6.800;2023-06-14T12:50:20;7.00;;;2.60;;
17604;SDS011;8921;50.964;6.800;2023-06-14T12:52:48;4.27;;;1.60;;
17604;SDS011;8921;50.964;6.800;2023-06-14T12:55:17;6.37;;;2.40;;
17604;SDS011;8921;50.964;6.800;2023-06-14T12:57:45;6.70;;;2.23;;
17604;SDS011;8921;50.964;6.800;2023-06-14T13:00:14;4.70;;;2.30;;
17604;SDS011;8921;50.964;6.800;2023-06-14T13:02:42;7.70;;;2.27;;
17604;SDS011;8921;50.964;6.800;2023-06-14T13:05:10;6.70;;;2.27;;
17604;SDS011;8921;50.964;6.800;2023-06-14T13:07:38;6.67;;;1.90;;
17604;SDS011;8921;50.964;6.800;2023-06-14T13:10:07;5.07;;;2.40;;
17604;SDS011;8921;50.964;6.800;2023-06-14T13:12:35;4.23;;;1.83;;
17604;SDS011;8921;50.964;6.800;2023-06-14T13:15:03;5.60;;;2.43;;
17604;SDS011;8921;50.964;6.800;2023-06-14T13:17:32;5.27;;;2.10;;
17604;SDS011;8921;50.964;6.800;2023-06-14T13:20:00;10.53;;;2.30;;
17604;SDS011;8921;50.964;6.800;2023-06-14T13:22:28;5.93;;;2.30;;
17604;SDS011;8921;50.964;6.800;2023-06-14T13:24:57;5.37;;;2.00;;
17604;SDS011;8921;50.964;6.800;2023-06-14T13:27:25;7.60;;;2.43;;
17604;SDS011;8921;50.964;6.800;2023-06-14T13:29:53;4.30;;;1.93;;
17604;SDS011;8921;50.964;6.800;2023-06-14T13:32:22;4.60;;;2.10;;
17604;SDS011;8921;50.964;6.800;2023-06-14T13:34:50;5.80;;;2.33;;
17604;SDS011;8921;50.964;6.800;2023-06-14T13:37:18;8.03;;;2.50;;
17604;SDS011;8921;50.964;6.800;2023-06-14T13:39:46;9.23;;;3.00;;
17604;SDS011;8921;50.964;6.800;2023-06-14T13:42:15;4.77;;;2.07;;
17604;SDS011;8921;50.964;6.800;2023-06-14T13:44:43;11.47;;;2.00;;
17604;SDS011;8921;50.964;6.800;2023-06-14T13:47:11;6.93;;;2.23;;
17604;SDS011;8921;50.964;6.800;2023-06-14T13:49:39;6.03;;;2.30;;
17604;SDS011;8921;50.964;6.800;2023-06-14T13:52:08;6.60;;;2.17;;
17604;SDS011;8921;50.964;6.800;2023-06-14T13:54:36;4.60;;;2.50;;
17604;SDS011;8921;50.964;6.800;2023-06-14T13:57:04;8.00;;;2.17;;
17604;SDS011;8921;50.964;6.800;2023-06-14T13:59:33;7.60;;;2.10;;
17604;SDS011;8921;50.964;6.800;2023-06-14T14:02:01;4.87;;;2.20;;
17604;SDS011;8921;50.964;6.800;2023-06-14T14:04:29;5.60;;;1.97;;
17604;SDS011;8921;50.964;6.800;2023-06-14T14:06:58;6.40;;;2.97;;
17604;SDS011;8921;50.964;6.800;2023-06-14T14:09:26;5.87;;;2.30;;
17604;SDS011;8921;50.964;6.800;2023-06-14T14:11:54;9.10;;;2.47;;
17604;SDS011;8921;50.964;6.800;2023-06-14T14:14:22;5.93;;;2.57;;
17604;SDS011;8921;50.964;6.800;2023-06-14T14:16:51;5.90;;;2.43;;
17604;SDS011;8921;50.964;6.800;2023-06-14T14:19:19;8.00;;;2.90;;
17604;SDS011;8921;50.964;6.800;2023-06-14T14:21:47;5.40;;;2.33;;
17604;SDS011;8921;50.964;6.800;2023-06-14T14:24:15;5.50;;;2.63;;
17604;SDS011;8921;50.964;6.800;2023-06-14T14:26:44;6.33;;;2.40;;
17604;SDS011;8921;50.964;6.800;2023-06-14T14:29:12;7.77;;;2.33;;
17604;SDS011;8921;50.964;6.800;2023-06-14T14:31:40;7.07;;;3.03;;
17604;SDS011;8921;50.964;6.800;2023-06-14T14:34:09;7.30;;;2.50;;
17604;SDS011;8921;50.964;6.800;2023-06-14T14:36:37;5.30;;;2.43;;
17604;SDS011;8921;50.964;6.800;2023-06-14T14:39:05;7.87;;;2.77;;
17604;SDS011;8921;50.964;6.800;2023-06-14T14:41:33;5.00;;;2.50;;
17604;SDS011;8921;50.964;6.800;2023-06-14T14:44:02;4.70;;;2.40;;
17604;SDS011;8921;50.964;6.800;2023-06-14T14:46:30;6.40;;;2.67;;
17604;SDS011;8921;50.964;6.800;2023-06-14T14:48:59;5.90;;;2.77;;
17604;SDS011;8921;50.964;6.800;2023-06-14T14:51:27;7.00;;;3.20;;
17604;SDS011;8921;50.964;6.800;2023-06-14T14:53:55;4.67;;;2.30;;
17604;SDS011;8921;50.964;6.800;2023-06-14T14:56:23;8.03;;;2.60;;
17604;SDS011;8921;50.964;6.800;2023-06-14T14:58:51;5.33;;;2.83;;
17604;SDS011;8921;50.964;6.800;2023-06-14T15:01:20;6.53;;;2.40;;
17604;SDS011;8921;50.964;6.800;2023-06-14T15:03:48;10.20;;;2.60;;
17604;SDS011;8921;50.964;6.800;2023-06-14T15:06:16;6.70;;;2.70;;
17604;SDS011;8921;50.964;6.800;2023-06-14T15:08:44;10.03;;;4.20;;
17604;SDS011;8921;50.964;6.800;2023-06-14T15:11:13;5.97;;;2.50;;
17604;SDS011;8921;50.964;6.800;2023-06-14T15:13:41;4.97;;;2.80;;
17604;SDS011;8921;50.964;6.800;2023-06-14T15:16:09;4.47;;;2.33;;
17604;SDS011;8921;50.964;6.800;2023-06-14T15:18:38;4.93;;;2.60;;
17604;SDS011;8921;50.964;6.800;2023-06-14T15:21:06;7.43;;;2.80;;